createdAt,value
2023-02-11T00:02:20.645Z,10.43
2023-02-11T00:07:15.081Z,17.27
2023-02-11T00:12:06.744Z,6.55
2023-02-11T00:16:59.679Z,17.25
2023-02-11T00:21:54.264Z,11.38
2023-02-11T00:26:48.644Z,9.30
2023-02-11T00:31:40.752Z,14.50
2023-02-11T00:36:36.168Z,21.93
2023-02-11T00:41:28.936Z,10.75
2023-02-11T00:51:12.877Z,12.80
2023-02-11T00:56:03.228Z,16.88
2023-02-11T01:00:53.992Z,12.82
2023-02-11T01:05:53.055Z,9.18
2023-02-11T01:10:47.501Z,12.35
2023-02-11T01:15:41.014Z,10.18
2023-02-11T01:20:44.043Z,16.67
2023-02-11T01:30:30.982Z,12.13
2023-02-11T01:35:23.222Z,14.50
2023-02-11T01:40:18.173Z,15.68
2023-02-11T01:45:39.891Z,17.45
2023-02-11T01:50:34.625Z,16.05
2023-02-11T01:55:38.427Z,20.75
2023-02-11T02:00:36.774Z,19.08
2023-02-11T02:05:42.827Z,15.70
2023-02-11T02:10:37.904Z,17.75
2023-02-11T02:15:33.995Z,21.13
2023-02-11T02:20:54.720Z,17.45
2023-02-11T02:26:30.724Z,16.10
2023-02-11T02:31:47.249Z,24.63
2023-02-11T02:36:47.565Z,22.25
2023-02-11T02:41:42.217Z,18.30
2023-02-11T02:46:35.512Z,22.30
2023-02-11T02:51:44.520Z,20.10
2023-02-11T02:56:48.919Z,25.40
2023-02-11T03:01:51.545Z,24.88
2023-02-11T03:11:47.031Z,19.60
2023-02-11T03:16:43.144Z,23.77
2023-02-11T03:21:37.785Z,29.83
2023-02-11T03:26:37.007Z,25.67
2023-02-11T03:31:41.297Z,25.70
2023-02-11T03:36:39.746Z,29.27
2023-02-11T03:41:35.104Z,31.60
2023-02-11T03:46:35.400Z,27.00
2023-02-11T03:51:37.489Z,35.20
2023-02-11T03:56:32.366Z,29.27
2023-02-11T04:01:22.825Z,31.52
2023-02-11T04:06:15.466Z,35.78
2023-02-11T04:15:59.169Z,34.72
2023-02-11T04:20:51.041Z,34.10
2023-02-11T04:25:45.926Z,33.50
2023-02-11T04:30:37.803Z,37.45
2023-02-11T04:35:34.216Z,31.38
2023-02-11T04:40:26.976Z,37.33
2023-02-11T04:45:24.250Z,40.80
2023-02-11T05:09:41.892Z,39.70
2023-02-11T05:14:37.939Z,39.90
2023-02-11T05:19:34.138Z,40.63
2023-02-11T05:24:28.922Z,33.13
2023-02-11T05:34:12.716Z,42.90
2023-02-11T05:39:03.729Z,46.05
2023-02-11T05:43:57.508Z,42.92
2023-02-11T05:48:50.208Z,42.20
2023-02-11T05:53:42.256Z,44.60
2023-02-11T05:58:41.565Z,42.75
2023-02-11T06:03:34.241Z,42.05
2023-02-11T06:08:24.773Z,49.63
2023-02-11T06:13:17.944Z,45.33
2023-02-11T06:18:10.256Z,46.00
2023-02-11T06:23:04.251Z,49.83
2023-02-11T06:27:55.634Z,48.70
2023-02-11T06:32:46.888Z,51.53
2023-02-11T06:37:38.355Z,49.95
2023-02-11T06:42:32.320Z,50.28
2023-02-11T06:47:34.161Z,54.15
2023-02-11T06:52:26.117Z,57.75
2023-02-11T06:57:16.840Z,56.45
2023-02-11T07:02:15.317Z,53.47
2023-02-11T07:07:10.164Z,56.65
2023-02-11T07:12:02.030Z,57.17
2023-02-11T07:16:57.529Z,57.80
2023-02-11T07:21:55.438Z,60.80
2023-02-11T07:26:46.893Z,65.13
2023-02-11T07:31:42.220Z,67.50
2023-02-11T07:36:35.428Z,62.93
2023-02-11T07:41:29.565Z,68.70
2023-02-11T07:46:23.047Z,70.57
2023-02-11T07:51:15.522Z,67.22
2023-02-11T07:56:07.661Z,71.80
2023-02-11T08:01:07.449Z,66.97
2023-02-11T08:06:03.647Z,70.97
2023-02-11T08:10:56.556Z,67.28
2023-02-11T08:15:49.922Z,68.57
2023-02-11T08:20:47.119Z,66.90
2023-02-11T08:25:38.692Z,61.10
2023-02-11T08:30:29.930Z,58.53
2023-02-11T08:35:21.424Z,64.20
2023-02-11T08:40:15.987Z,62.33
2023-02-11T08:45:08.750Z,54.10
